createdAt,value
2019-03-10T00:01:25.086Z,99641.09
2019-03-10T00:03:54.195Z,99641.09
2019-03-10T00:06:21.767Z,99642.55
2019-03-10T00:08:49.285Z,99637.97
2019-03-10T00:11:17.340Z,99634.70
2019-03-10T00:13:44.932Z,99634.70
2019-03-10T00:16:12.499Z,99647.01
2019-03-10T00:18:40.301Z,99649.77
2019-03-10T00:21:07.755Z,99649.77
2019-03-10T00:23:35.342Z,99650.13
2019-03-10T00:26:03.292Z,99638.19
2019-03-10T00:28:30.907Z,99614.30
2019-03-10T00:30:58.416Z,99610.42
2019-03-10T00:33:26.266Z,99607.41
2019-03-10T00:35:53.713Z,99607.41
2019-03-10T00:38:21.216Z,99607.41
2019-03-10T00:40:49.021Z,99605.36
2019-03-10T00:43:16.610Z,99593.06
2019-03-10T00:45:44.165Z,99598.48
2019-03-10T00:48:11.662Z,99598.48
2019-03-10T00:50:39.466Z,99590.52
2019-03-10T00:53:07.066Z,99589.19
2019-03-10T00:55:34.679Z,99595.09
2019-03-10T00:58:02.709Z,99604.02
2019-03-10T01:00:30.244Z,99604.02
2019-03-10T01:02:57.770Z,99602.55
2019-03-10T01:05:25.359Z,99579.55
2019-03-10T01:07:55.124Z,99587.39
2019-03-10T01:10:22.628Z,99585.20
2019-03-10T01:12:50.414Z,99585.20
2019-03-10T01:15:18.385Z,99586.53
2019-03-10T01:17:45.854Z,99575.45
2019-03-10T01:20:13.467Z,99573.27
2019-03-10T01:22:44.180Z,99565.42
2019-03-10T01:25:13.159Z,99563.98
2019-03-10T01:27:40.675Z,99563.98
2019-03-10T01:30:08.263Z,99545.31
2019-03-10T01:32:35.736Z,99542.52
2019-03-10T01:35:03.789Z,99541.80
2019-03-10T01:37:31.411Z,99541.80
2019-03-10T01:39:58.972Z,99524.92
2019-03-10T01:42:27.206Z,99512.27
2019-03-10T01:44:54.801Z,99509.98
2019-03-10T01:47:22.354Z,99501.41
2019-03-10T01:49:49.926Z,99501.41
2019-03-10T01:52:17.815Z,99496.49
2019-03-10T01:54:45.288Z,99493.34
2019-03-10T01:57:13.470Z,99472.12
2019-03-10T01:59:44.296Z,99463.70
2019-03-10T02:02:11.807Z,99466.34
2019-03-10T02:04:40.562Z,99466.34
2019-03-10T02:07:08.483Z,99460.08
2019-03-10T02:09:36.326Z,99441.86
2019-03-10T02:12:03.904Z,99428.95
2019-03-10T02:14:31.403Z,99428.95
2019-03-10T02:16:58.991Z,99415.34
2019-03-10T02:19:27.004Z,99406.66
2019-03-10T02:21:54.530Z,99396.64
2019-03-10T02:24:23.965Z,99391.22
2019-03-10T02:26:51.784Z,99391.22
2019-03-10T02:29:19.409Z,99379.39
2019-03-10T02:31:46.929Z,99379.39
2019-03-10T02:34:14.779Z,99379.89
2019-03-10T02:36:42.388Z,99376.74
2019-03-10T02:39:09.904Z,99373.63
2019-03-10T02:41:37.838Z,99366.63
2019-03-10T02:44:05.283Z,99358.68
2019-03-10T02:46:33.970Z,99356.38
2019-03-10T02:49:01.822Z,99344.56
2019-03-10T02:51:29.398Z,99344.56
2019-03-10T02:53:56.844Z,99327.09
2019-03-10T02:56:24.364Z,99321.28
2019-03-10T02:58:52.243Z,99317.45
2019-03-10T03:01:19.751Z,99317.45
2019-03-10T03:03:47.356Z,99307.07
2019-03-10T03:06:15.234Z,99312.03
2019-03-10T03:08:45.025Z,99307.30
2019-03-10T03:11:12.617Z,99295.27
2019-03-10T03:13:40.129Z,99295.27
2019-03-10T03:16:09.442Z,99282.27
2019-03-10T03:18:36.909Z,99276.27
2019-03-10T03:21:04.480Z,99276.27
2019-03-10T03:23:32.538Z,99263.97
2019-03-10T03:26:00.052Z,99263.97
2019-03-10T03:28:30.164Z,99252.77
2019-03-10T03:30:57.726Z,99250.09
2019-03-10T03:33:25.705Z,99251.67
2019-03-10T03:35:53.296Z,99241.91
2019-03-10T03:38:20.916Z,99241.80
2019-03-10T03:40:48.421Z,99231.06
2019-03-10T03:43:16.255Z,99231.06
2019-03-10T03:45:43.809Z,99227.95
2019-03-10T03:48:11.663Z,99214.47
2019-03-10T03:50:39.229Z,99212.78
2019-03-10T03:53:07.136Z,99208.06
2019-03-10T03:55:34.644Z,99201.59
2019-03-10T03:58:02.140Z,99199.91
2019-03-10T04:00:29.582Z,99190.39
2019-03-10T04:02:57.617Z,99182.20
2019-03-10T04:05:25.215Z,99189.79
2019-03-10T04:07:52.725Z,99179.42
2019-03-10T04:10:20.213Z,99164.64
2019-03-10T04:12:47.835Z,99156.09
2019-03-10T04:15:15.769Z,99159.21
2019-03-10T04:17:43.279Z,99151.38
2019-03-10T04:20:12.736Z,99146.23
2019-03-10T04:22:40.556Z,99146.23
2019-03-10T04:25:08.444Z,99137.19
2019-03-10T04:27:36.245Z,99139.97
2019-03-10T04:30:04.084Z,99133.83
2019-03-10T04:32:31.626Z,99121.78
2019-03-10T04:34:59.628Z,99114.09
2019-03-10T04:37:27.239Z,99114.09
2019-03-10T04:39:54.780Z,99108.20
2019-03-10T04:42:22.321Z,99090.50
2019-03-10T04:44:50.322Z,99083.53
2019-03-10T04:47:17.920Z,99070.42
2019-03-10T04:49:45.443Z,99064.92
2019-03-10T04:52:13.046Z,99064.92
2019-03-10T04:55:06.072Z,99050.48
2019-03-10T04:57:33.636Z,99050.48
2019-03-10T05:00:01.128Z,99041.08
2019-03-10T05:02:29.092Z,99033.76
2019-03-10T05:04:56.657Z,99026.29
2019-03-10T05:07:24.130Z,99030.76
2019-03-10T05:09:51.686Z,99020.64
2019-03-10T05:12:19.209Z,99020.64
2019-03-10T05:14:46.728Z,99005.63
2019-03-10T05:17:14.171Z,99006.95
2019-03-10T05:19:42.148Z,99005.99
2019-03-10T05:22:09.678Z,98988.45
2019-03-10T05:24:37.243Z,98982.30
2019-03-10T05:27:06.765Z,98982.30
2019-03-10T05:29:34.331Z,98965.97
2019-03-10T05:32:01.813Z,98965.97
2019-03-10T05:34:29.398Z,98953.10
2019-03-10T05:36:57.259Z,98947.45
2019-03-10T05:39:24.778Z,98940.14
2019-03-10T05:41:52.307Z,98936.99
2019-03-10T05:44:19.817Z,98936.99
2019-03-10T05:46:47.276Z,98933.02
2019-03-10T05:49:14.799Z,98918.48
2019-03-10T05:51:42.394Z,98914.41
2019-03-10T05:54:10.326Z,98914.41
2019-03-10T05:56:37.924Z,98892.63
2019-03-10T05:59:05.468Z,98886.52
2019-03-10T06:01:33.017Z,98884.34
2019-03-10T06:04:01.186Z,98875.20
2019-03-10T06:06:28.779Z,98875.20
2019-03-10T06:08:56.329Z,98870.06
2019-03-10T06:11:24.393Z,98863.80
2019-03-10T06:13:57.975Z,98859.59
2019-03-10T06:16:25.504Z,98859.59
2019-03-10T06:18:53.051Z,98847.57
2019-03-10T06:21:20.879Z,98836.05
2019-03-10T06:23:48.374Z,98832.09
2019-03-10T06:26:15.856Z,98818.90
2019-03-10T06:28:43.356Z,98805.20
2019-03-10T06:31:11.113Z,98798.50
2019-03-10T06:33:38.619Z,98790.22
2019-03-10T06:36:06.199Z,98790.22
2019-03-10T06:38:33.768Z,98769.19
2019-03-10T06:41:01.661Z,98777.84
2019-03-10T06:43:29.625Z,98780.62
2019-03-10T06:45:57.163Z,98782.66
2019-03-10T06:48:25.159Z,98773.78
2019-03-10T06:50:52.934Z,98762.38
2019-03-10T06:53:20.799Z,98745.32
2019-03-10T06:55:48.638Z,98742.33
2019-03-10T06:58:16.087Z,98726.97
2019-03-10T07:00:43.563Z,98722.87
2019-03-10T07:03:11.623Z,98722.87
2019-03-10T07:05:39.066Z,98712.54
2019-03-10T07:08:06.566Z,98693.94
2019-03-10T07:10:35.415Z,98694.28
2019-03-10T07:13:03.003Z,98691.76
2019-03-10T07:15:30.590Z,98678.55
2019-03-10T07:17:58.359Z,98670.05
2019-03-10T07:20:26.209Z,98668.11
2019-03-10T07:22:53.768Z,98663.17
2019-03-10T07:25:24.370Z,98661.00
2019-03-10T07:28:03.950Z,98650.81
2019-03-10T07:30:43.654Z,98650.81
2019-03-10T07:33:20.576Z,98662.80
2019-03-10T07:36:13.321Z,98645.39
2019-03-10T07:38:58.332Z,98645.39
2019-03-10T07:41:32.883Z,98634.11
2019-03-10T07:44:19.320Z,98611.03
2019-03-10T07:47:05.683Z,98593.39
2019-03-10T07:50:01.207Z,98584.73
2019-03-10T07:52:40.807Z,98584.73
2019-03-10T07:55:38.046Z,98560.22
2019-03-10T07:58:28.341Z,98554.58
2019-03-10T08:01:21.008Z,98538.97
2019-03-10T08:04:07.314Z,98538.50
2019-03-10T08:06:52.176Z,98528.28
2019-03-10T08:09:30.520Z,98521.20
2019-03-10T08:12:15.515Z,98514.33
2019-03-10T08:14:57.747Z,98512.27
2019-03-10T08:17:42.724Z,98508.64
2019-03-10T08:20:28.302Z,98508.64
2019-03-10T08:23:12.525Z,98494.47
2019-03-10T08:25:58.083Z,98494.47
2019-03-10T08:28:44.853Z,98494.80
2019-03-10T08:31:43.788Z,98494.80
2019-03-10T08:34:36.388Z,98474.42
2019-03-10T08:37:29.077Z,98480.22
2019-03-10T08:40:18.565Z,98480.22
2019-03-10T08:42:57.683Z,98472.11
2019-03-10T08:45:42.474Z,98469.07
2019-03-10T08:48:29.359Z,98447.02
2019-03-10T08:51:12.235Z,98458.55
2019-03-10T08:54:05.870Z,98447.19
2019-03-10T08:56:55.172Z,98443.79
2019-03-10T08:59:44.996Z,98433.66
2019-03-10T09:02:36.900Z,98430.60
2019-03-10T09:05:22.269Z,98430.60
2019-03-10T09:08:14.492Z,98426.39
2019-03-10T09:10:50.508Z,98400.84
2019-03-10T09:13:42.599Z,98399.80
2019-03-10T09:16:25.852Z,98403.48
2019-03-10T09:19:01.390Z,98397.48
2019-03-10T09:21:57.230Z,98388.44
2019-03-10T09:24:42.870Z,98388.76
2019-03-10T09:27:28.655Z,98388.76
2019-03-10T09:30:21.348Z,98367.50
2019-03-10T09:33:06.892Z,98370.36
2019-03-10T09:35:42.142Z,98370.36
2019-03-10T09:38:28.490Z,98355.23
2019-03-10T09:41:20.687Z,98355.31
2019-03-10T09:44:07.072Z,98355.31
2019-03-10T09:46:55.868Z,98345.06
2019-03-10T09:49:41.913Z,98333.94
2019-03-10T09:52:29.733Z,98322.70
2019-03-10T09:55:08.502Z,98309.73
2019-03-10T09:57:50.063Z,98300.88
2019-03-10T10:00:34.786Z,98286.26
2019-03-10T10:03:19.841Z,98293.67
2019-03-10T10:05:53.751Z,98277.78
2019-03-10T10:08:49.520Z,98276.88
2019-03-10T10:11:37.281Z,98258.69
2019-03-10T10:14:22.167Z,98248.94
2019-03-10T10:17:02.236Z,98246.38
2019-03-10T10:19:47.579Z,98246.38
2019-03-10T10:22:31.907Z,98244.02
2019-03-10T10:25:12.153Z,98237.83
2019-03-10T10:28:00.902Z,98235.21
2019-03-10T10:30:47.618Z,98234.98
2019-03-10T10:33:23.928Z,98234.98
2019-03-10T10:36:13.659Z,98237.97
2019-03-10T10:39:02.924Z,98234.47
2019-03-10T10:41:48.513Z,98236.31
2019-03-10T10:44:36.005Z,98242.26
2019-03-10T10:47:31.596Z,98242.26
2019-03-10T10:50:29.972Z,98245.62
2019-03-10T10:53:22.769Z,98238.70
2019-03-10T10:56:07.799Z,98240.87
2019-03-10T10:58:54.640Z,98240.87
2019-03-10T11:01:35.999Z,98239.55
2019-03-10T11:04:22.995Z,98248.03
2019-03-10T11:07:12.221Z,98213.14
2019-03-10T11:10:05.733Z,98214.33
2019-03-10T11:13:10.353Z,98214.33
2019-03-10T11:15:49.860Z,98195.56
2019-03-10T11:18:51.070Z,98184.73
2019-03-10T11:21:33.741Z,98185.13
2019-03-10T11:24:07.261Z,98185.13
2019-03-10T11:26:54.529Z,98178.02
2019-03-10T11:29:40.936Z,98165.80
2019-03-10T11:32:39.684Z,98165.80
2019-03-10T11:35:24.810Z,98161.58
2019-03-10T11:38:09.654Z,98148.30
2019-03-10T11:41:05.078Z,98148.94
2019-03-10T11:43:41.443Z,98137.24
2019-03-10T11:46:24.849Z,98137.24
2019-03-10T11:49:32.191Z,98146.27
2019-03-10T11:52:21.296Z,98146.27
2019-03-10T11:55:17.017Z,98141.16
2019-03-10T11:57:57.194Z,98141.16
2019-03-10T12:00:33.320Z,98139.05
2019-03-10T12:03:18.414Z,98143.23
2019-03-10T12:05:54.674Z,98136.16
2019-03-10T12:08:40.291Z,98134.53
2019-03-10T12:11:08.133Z,98124.07
2019-03-10T12:13:38.823Z,98106.73
2019-03-10T12:16:06.648Z,98123.39
2019-03-10T12:18:34.631Z,98126.22
2019-03-10T12:21:03.497Z,98126.22
2019-03-10T12:23:31.024Z,98123.88
2019-03-10T12:25:59.048Z,98122.79
2019-03-10T12:28:26.652Z,98122.79
2019-03-10T12:30:54.206Z,98119.69
2019-03-10T12:33:33.646Z,98119.69
2019-03-10T12:36:01.188Z,98119.87
2019-03-10T12:38:29.104Z,98118.58
2019-03-10T12:40:59.416Z,98118.58
2019-03-10T12:43:27.007Z,98105.41
2019-03-10T12:45:59.921Z,98101.70
2019-03-10T12:48:27.463Z,98101.70
2019-03-10T12:50:58.184Z,98111.54
2019-03-10T12:53:26.050Z,98117.58
2019-03-10T12:55:54.882Z,98117.58
2019-03-10T12:58:22.446Z,98117.99
2019-03-10T13:00:50.250Z,98110.41
2019-03-10T13:03:20.269Z,98110.45
2019-03-10T13:05:47.746Z,98141.28
2019-03-10T13:08:18.742Z,98141.28
2019-03-10T13:10:46.322Z,98127.86
2019-03-10T13:13:16.053Z,98127.86
2019-03-10T13:15:45.025Z,98129.36
2019-03-10T13:18:12.531Z,98142.01
2019-03-10T13:20:40.991Z,98139.21
2019-03-10T13:23:10.218Z,98141.11
2019-03-10T13:25:46.502Z,98158.14
2019-03-10T13:28:16.249Z,98149.50
2019-03-10T13:30:43.526Z,98149.50
2019-03-10T13:33:11.031Z,98158.81
2019-03-10T13:35:41.834Z,98157.42
2019-03-10T13:38:10.629Z,98167.05
2019-03-10T13:40:38.609Z,98189.94
2019-03-10T13:43:06.573Z,98189.72
2019-03-10T13:45:35.427Z,98183.05
2019-03-10T13:48:05.904Z,98179.14
2019-03-10T13:50:33.648Z,98179.14
2019-03-10T13:53:02.309Z,98150.07
2019-03-10T13:58:08.436Z,98164.06
2019-03-10T14:00:39.997Z,98150.09
2019-03-10T14:03:09.403Z,98169.83
2019-03-10T14:05:44.177Z,98170.65
2019-03-10T14:08:32.309Z,98167.00
2019-03-10T14:11:01.887Z,98209.87
2019-03-10T14:13:29.860Z,98209.87
2019-03-10T14:15:57.413Z,98174.13
2019-03-10T14:18:28.140Z,98204.38
2019-03-10T14:20:55.656Z,98244.88
2019-03-10T14:23:24.435Z,98244.88
2019-03-10T14:26:01.341Z,98237.27
2019-03-10T14:28:30.774Z,98264.11
2019-03-10T14:31:01.556Z,98254.89
2019-03-10T14:33:31.383Z,98252.47
2019-03-10T14:36:01.720Z,98252.47
2019-03-10T14:38:29.706Z,98256.50
2019-03-10T14:40:57.215Z,98256.50
2019-03-10T14:43:24.774Z,98304.73
2019-03-10T14:45:52.811Z,98316.72
2019-03-10T14:48:20.381Z,98316.72
2019-03-10T14:50:47.836Z,98302.23
2019-03-10T14:53:15.796Z,98317.62
2019-03-10T14:55:44.936Z,98336.50
2019-03-10T14:58:12.622Z,98371.67
2019-03-10T15:00:41.017Z,98357.25
2019-03-10T15:03:08.680Z,98371.81
2019-03-10T15:05:36.146Z,98371.81
2019-03-10T15:08:03.994Z,98379.16
2019-03-10T15:10:31.596Z,98379.16
2019-03-10T15:13:03.334Z,98383.50
2019-03-10T15:15:31.331Z,98408.48
2019-03-10T15:17:58.781Z,98392.40
2019-03-10T15:20:31.940Z,98392.40
2019-03-10T15:22:59.882Z,98444.95
2019-03-10T15:25:27.499Z,98417.11
2019-03-10T15:28:03.848Z,98417.11
2019-03-10T15:30:31.854Z,98426.48
2019-03-10T15:32:59.402Z,98431.08
2019-03-10T15:35:27.043Z,98431.08
2019-03-10T15:37:55.015Z,98462.19
2019-03-10T15:40:22.621Z,98463.66
2019-03-10T15:43:09.853Z,98495.66
2019-03-10T15:45:37.639Z,98530.48
2019-03-10T15:48:05.271Z,98500.52
2019-03-10T15:50:32.833Z,98492.13
2019-03-10T15:53:00.716Z,98492.13
2019-03-10T15:55:30.000Z,98502.47
2019-03-10T15:57:57.493Z,98541.41
2019-03-10T16:00:25.472Z,98567.09
2019-03-10T16:02:54.206Z,98567.09
2019-03-10T16:05:24.751Z,98586.09
2019-03-10T16:07:52.704Z,98576.26
2019-03-10T16:10:23.325Z,98600.77
2019-03-10T16:12:53.736Z,98605.05
2019-03-10T16:15:21.768Z,98616.27
2019-03-10T16:17:49.240Z,98616.27
2019-03-10T16:20:16.833Z,98651.89
2019-03-10T16:22:47.277Z,98690.55
2019-03-10T16:25:14.873Z,98690.55
2019-03-10T16:27:42.398Z,98651.03
2019-03-10T16:30:10.226Z,98704.08
2019-03-10T16:32:37.817Z,98704.08
2019-03-10T16:35:06.587Z,98743.26
2019-03-10T16:37:34.627Z,98741.62
2019-03-10T16:40:04.917Z,98771.84
2019-03-10T16:42:32.452Z,98796.67
2019-03-10T16:45:00.519Z,98796.67
2019-03-10T16:47:27.983Z,98825.88
2019-03-10T16:49:55.885Z,98891.38
2019-03-10T16:52:23.481Z,98897.34
2019-03-10T16:54:51.401Z,98897.34
2019-03-10T16:57:19.200Z,98905.72
2019-03-10T16:59:46.910Z,98967.29
2019-03-10T17:02:14.496Z,98987.69
2019-03-10T17:04:42.426Z,98984.69
2019-03-10T17:07:10.991Z,99004.36
2019-03-10T17:09:38.590Z,99004.36
2019-03-10T17:12:06.611Z,99016.70
2019-03-10T17:14:35.779Z,99035.44
2019-03-10T17:17:03.344Z,99049.22
2019-03-10T17:19:37.819Z,99067.95
2019-03-10T17:22:16.463Z,99083.55
2019-03-10T17:24:44.365Z,99093.59
2019-03-10T17:27:14.721Z,99129.25
2019-03-10T17:29:42.251Z,99106.91
2019-03-10T17:32:14.799Z,99106.91
2019-03-10T17:34:42.340Z,99115.99
2019-03-10T17:37:12.568Z,99135.52
2019-03-10T17:39:40.554Z,99155.30
2019-03-10T17:42:08.105Z,99152.36
2019-03-10T17:44:41.273Z,99169.95
2019-03-10T17:47:09.888Z,99178.20
2019-03-10T17:49:37.343Z,99178.20
2019-03-10T17:52:14.389Z,99190.63
2019-03-10T17:54:36.572Z,99190.63
2019-03-10T17:57:07.161Z,99211.44
2019-03-10T17:59:34.646Z,99213.32
2019-03-10T18:02:08.999Z,99232.48
2019-03-10T18:04:35.167Z,99237.03
2019-03-10T18:07:02.732Z,99237.03
2019-03-10T18:09:33.614Z,99248.63
2019-03-10T18:12:07.278Z,99248.63
2019-03-10T18:14:36.151Z,99250.36
2019-03-10T18:17:04.154Z,99263.69
2019-03-10T18:19:31.621Z,99270.47
2019-03-10T18:21:59.870Z,99267.09
2019-03-10T18:24:27.803Z,99267.09
2019-03-10T18:26:55.322Z,99277.74
2019-03-10T18:29:22.931Z,99272.10
2019-03-10T18:31:53.788Z,99278.70
2019-03-10T18:34:21.339Z,99280.51
2019-03-10T18:36:51.208Z,99282.78
2019-03-10T18:39:22.009Z,99282.78
2019-03-10T18:41:51.954Z,99294.01
2019-03-10T18:44:19.520Z,99293.24
2019-03-10T18:46:51.548Z,99303.06
2019-03-10T18:49:20.314Z,99308.16
2019-03-10T18:51:48.541Z,99309.69
2019-03-10T18:54:16.468Z,99309.78
2019-03-10T18:56:49.055Z,99309.78
2019-03-10T18:59:16.648Z,99308.59
2019-03-10T19:01:45.925Z,99318.58
2019-03-10T19:04:13.499Z,99324.07
2019-03-10T19:06:41.120Z,99329.53
2019-03-10T19:09:08.988Z,99329.53
2019-03-10T19:11:36.467Z,99317.30
2019-03-10T19:14:04.811Z,99331.80
2019-03-10T19:16:35.416Z,99327.47
2019-03-10T19:19:05.768Z,99345.71
2019-03-10T19:21:36.371Z,99357.03
2019-03-10T19:24:06.027Z,99353.81
2019-03-10T19:26:36.246Z,99353.81
2019-03-10T19:29:14.098Z,99383.55
2019-03-10T19:31:45.632Z,99391.47
2019-03-10T19:37:03.051Z,99409.48
2019-03-10T19:39:36.256Z,99411.28
2019-03-10T19:42:03.737Z,99411.28
2019-03-10T19:44:33.128Z,99435.15
2019-03-10T19:47:03.674Z,99440.43
2019-03-10T19:49:31.278Z,99440.43
2019-03-10T19:51:59.759Z,99464.23
2019-03-10T19:54:30.577Z,99469.88
2019-03-10T19:56:58.090Z,99481.27
2019-03-10T19:59:25.630Z,99479.30
2019-03-10T20:01:56.456Z,99487.40
2019-03-10T20:04:32.475Z,99490.77
2019-03-10T20:07:00.227Z,99484.84
2019-03-10T20:09:27.788Z,99484.84
2019-03-10T20:11:55.336Z,99499.23
2019-03-10T20:14:23.488Z,99499.23
2019-03-10T20:16:54.520Z,99509.67
2019-03-10T20:19:22.111Z,99507.50
2019-03-10T20:21:51.910Z,99507.50
2019-03-10T20:24:21.096Z,99518.32
2019-03-10T20:26:48.679Z,99507.88
2019-03-10T20:29:19.047Z,99507.88
2019-03-10T20:31:46.539Z,99514.11
2019-03-10T20:34:15.265Z,99514.11
2019-03-10T20:36:43.223Z,99519.95
2019-03-10T20:39:12.911Z,99517.12
2019-03-10T20:41:40.550Z,99518.82
2019-03-10T20:44:14.227Z,99525.49
2019-03-10T20:46:41.847Z,99525.49
2019-03-10T20:49:09.396Z,99546.94
2019-03-10T20:51:37.362Z,99547.80
2019-03-10T20:54:05.244Z,99553.94
2019-03-10T20:56:32.795Z,99553.94
2019-03-10T20:59:05.231Z,99564.55
2019-03-10T21:01:36.642Z,99564.55
2019-03-10T21:04:07.197Z,99555.97
2019-03-10T21:06:37.922Z,99558.52
2019-03-10T21:09:07.870Z,99561.95
2019-03-10T21:11:35.459Z,99568.92
2019-03-10T21:14:06.260Z,99568.92
2019-03-10T21:16:33.813Z,99574.03
2019-03-10T21:19:01.403Z,99574.03
2019-03-10T21:21:30.957Z,99574.41
2019-03-10T21:24:02.951Z,99573.45
2019-03-10T21:26:30.583Z,99573.04
2019-03-10T21:28:58.505Z,99591.21
2019-03-10T21:31:26.018Z,99613.28
2019-03-10T21:33:53.469Z,99613.28
2019-03-10T21:36:21.499Z,99591.09
2019-03-10T21:38:48.992Z,99594.19
2019-03-10T21:41:16.544Z,99594.19
2019-03-10T21:43:44.514Z,99606.13
2019-03-10T21:46:14.073Z,99602.64
2019-03-10T21:48:41.702Z,99602.64
2019-03-10T21:51:09.455Z,99615.08
2019-03-10T21:53:39.743Z,99623.02
2019-03-10T21:56:07.307Z,99623.02
2019-03-10T21:58:37.923Z,99605.88
2019-03-10T22:01:05.529Z,99611.95
2019-03-10T22:03:33.077Z,99611.95
2019-03-10T22:06:00.993Z,99632.66
2019-03-10T22:08:28.613Z,99622.84
2019-03-10T22:10:57.361Z,99620.70
2019-03-10T22:13:24.959Z,99629.05
2019-03-10T22:15:59.319Z,99628.48
2019-03-10T22:18:26.850Z,99642.02
2019-03-10T22:20:57.644Z,99624.84
2019-03-10T22:23:25.460Z,99625.70
2019-03-10T22:25:56.049Z,99631.88
2019-03-10T22:28:23.529Z,99649.53
2019-03-10T22:30:51.072Z,99649.53
2019-03-10T22:33:20.330Z,99648.02
2019-03-10T22:35:48.141Z,99648.02
2019-03-10T22:38:15.647Z,99650.02
2019-03-10T22:40:43.690Z,99634.42
2019-03-10T22:43:13.250Z,99641.23
2019-03-10T22:45:40.806Z,99641.23
2019-03-10T22:48:08.661Z,99641.73
2019-03-10T22:50:36.102Z,99646.66
2019-03-10T22:53:03.677Z,99651.78
2019-03-10T22:55:31.549Z,99649.75
2019-03-10T22:57:59.055Z,99646.17
2019-03-10T23:00:35.116Z,99645.23
2019-03-10T23:03:03.004Z,99645.23
2019-03-10T23:05:30.582Z,99638.66
2019-03-10T23:07:58.024Z,99642.23
2019-03-10T23:10:27.159Z,99639.90
2019-03-10T23:12:56.538Z,99639.90
2019-03-10T23:15:24.332Z,99632.38
2019-03-10T23:17:51.974Z,99627.87
2019-03-10T23:20:19.446Z,99622.52
2019-03-10T23:22:46.962Z,99618.01
2019-03-10T23:25:14.459Z,99613.05
2019-03-10T23:27:42.522Z,99613.05
2019-03-10T23:30:10.067Z,99593.78
2019-03-10T23:32:37.600Z,99592.69
2019-03-10T23:35:05.112Z,99586.69
2019-03-10T23:37:32.918Z,99580.66
2019-03-10T23:40:00.472Z,99580.02
2019-03-10T23:42:30.965Z,99580.02
2019-03-10T23:44:58.454Z,99591.32
2019-03-10T23:47:26.432Z,99591.32
2019-03-10T23:49:53.877Z,99579.11
2019-03-10T23:52:21.341Z,99575.08
2019-03-10T23:54:50.849Z,99572.82
2019-03-10T23:57:17.996Z,99561.71
2019-03-10T23:59:45.983Z,99561.71
